Main page
METAR-TAF:

METAR-TAF

Airports :

Bucholz Army Airfield

Kwajalein, Marshall Islands

latitude: 08-43N, longitude: 167-44E, elevation: 3 m

Current weather observation

The report was made 29 minutes ago, at 14:00 UTC
Wind 18 kt from the East/Northeast with gusts up to 21 kt
Temperature 28°C
Humidity 94%
Pressure 1011 hPa
Visibility: 16.1 km
Scattered clouds at a height of 5000 ft
Scattered clouds at a height of 7000 ft

METAR: PKWA 221400Z AUTO 06018G21KT 10SM SCT050 SCT070 28/27 A2986 RMK AO2 T02760269

Time: 02:29 (14:29 UTC)

Forecast

The report was made 3 hours and 8 minutes ago, at 11:21 UTC
Forecast valid from 22 at 12 UTC to 23 at 12 UTC
Wind 16 kt from the East/Northeast
Visibility: 10 km
Scattered clouds at a height of 1700 ft
Scattered clouds at a height of 4000 ft
showers in vicinity

TAF: PKWA 221121Z 2212/2312 06016KT P6SM VCSH SCT017 SCT040

Weather observations and forecasts of more than 4000 airports (METAR and TAF reports).

The available stations are represented by yellow and red dots on the map.

Hover mouse over dot to see the name of the station.

Then click to see weather observations and forecasts.

To change the map : click on the green buttons with a black cross to zoom in, on the green button with a dash to zoom out, or on the green arrows for adjacent maps.


METAR-TAF: